sensor_id;sensor_type;location;lat;lon;timestamp;P1;durP1;ratioP1;P2;durP2;ratioP2
11443;SDS011;5778;47.856;12.154;2022-10-31T00:00:41;9.13;;;6.50;;
11443;SDS011;5778;47.856;12.154;2022-10-31T00:03:09;9.70;;;7.13;;
11443;SDS011;5778;47.856;12.154;2022-10-31T00:05:36;13.07;;;8.57;;
11443;SDS011;5778;47.856;12.154;2022-10-31T00:08:08;10.57;;;8.60;;
11443;SDS011;5778;47.856;12.154;2022-10-31T00:10:37;12.33;;;5.87;;
11443;SDS011;5778;47.856;12.154;2022-10-31T00:13:04;12.83;;;8.17;;
11443;SDS011;5778;47.856;12.154;2022-10-31T00:15:32;13.73;;;7.70;;
11443;SDS011;5778;47.856;12.154;2022-10-31T00:17:59;11.10;;;7.93;;
11443;SDS011;5778;47.856;12.154;2022-10-31T00:20:26;11.57;;;6.23;;
11443;SDS011;5778;47.856;12.154;2022-10-31T00:22:56;9.60;;;6.23;;
11443;SDS011;5778;47.856;12.154;2022-10-31T00:25:26;12.13;;;7.00;;
11443;SDS011;5778;47.856;12.154;2022-10-31T00:27:54;12.03;;;7.90;;
11443;SDS011;5778;47.856;12.154;2022-10-31T00:30:21;6.57;;;5.70;;
11443;SDS011;5778;47.856;12.154;2022-10-31T00:32:50;11.37;;;7.07;;
11443;SDS011;5778;47.856;12.154;2022-10-31T00:35:16;8.47;;;5.53;;
11443;SDS011;5778;47.856;12.154;2022-10-31T00:37:44;9.30;;;5.40;;
11443;SDS011;5778;47.856;12.154;2022-10-31T00:40:11;6.90;;;4.70;;
11443;SDS011;5778;47.856;12.154;2022-10-31T00:42:40;9.57;;;5.20;;
11443;SDS011;5778;47.856;12.154;2022-10-31T00:45:08;8.97;;;5.53;;
11443;SDS011;5778;47.856;12.154;2022-10-31T00:47:36;7.87;;;5.40;;
11443;SDS011;5778;47.856;12.154;2022-10-31T00:50:04;6.77;;;5.40;;
11443;SDS011;5778;47.856;12.154;2022-10-31T00:52:33;9.77;;;6.80;;
11443;SDS011;5778;47.856;12.154;2022-10-31T00:55:02;10.87;;;5.97;;
11443;SDS011;5778;47.856;12.154;2022-10-31T00:57:30;8.43;;;5.60;;
11443;SDS011;5778;47.856;12.154;2022-10-31T00:59:59;9.67;;;5.80;;
11443;SDS011;5778;47.856;12.154;2022-10-31T01:02:27;7.83;;;5.97;;
11443;SDS011;5778;47.856;12.154;2022-10-31T01:04:54;9.87;;;5.50;;
11443;SDS011;5778;47.856;12.154;2022-10-31T01:07:22;10.23;;;6.27;;
11443;SDS011;5778;47.856;12.154;2022-10-31T01:09:49;8.50;;;5.27;;
11443;SDS011;5778;47.856;12.154;2022-10-31T01:12:16;9.83;;;5.30;;
11443;SDS011;5778;47.856;12.154;2022-10-31T01:14:44;6.40;;;4.90;;
11443;SDS011;5778;47.856;12.154;2022-10-31T01:17:13;7.37;;;4.87;;
11443;SDS011;5778;47.856;12.154;2022-10-31T01:19:40;6.07;;;4.83;;
11443;SDS011;5778;47.856;12.154;2022-10-31T01:22:07;7.93;;;5.37;;
11443;SDS011;5778;47.856;12.154;2022-10-31T01:24:34;7.53;;;4.43;;
11443;SDS011;5778;47.856;12.154;2022-10-31T01:27:02;6.73;;;5.07;;
11443;SDS011;5778;47.856;12.154;2022-10-31T01:29:32;9.87;;;4.77;;
11443;SDS011;5778;47.856;12.154;2022-10-31T01:32:00;6.43;;;5.00;;
11443;SDS011;5778;47.856;12.154;2022-10-31T01:34:28;10.17;;;4.87;;
11443;SDS011;5778;47.856;12.154;2022-10-31T01:36:55;8.37;;;4.60;;
11443;SDS011;5778;47.856;12.154;2022-10-31T01:39:23;7.63;;;5.20;;
11443;SDS011;5778;47.856;12.154;2022-10-31T01:41:51;10.70;;;6.03;;
11443;SDS011;5778;47.856;12.154;2022-10-31T01:47:19;9.90;;;5.70;;
11443;SDS011;5778;47.856;12.154;2022-10-31T01:50:03;7.23;;;5.30;;
11443;SDS011;5778;47.856;12.154;2022-10-31T01:52:36;10.10;;;5.13;;
11443;SDS011;5778;47.856;12.154;2022-10-31T01:55:08;7.83;;;6.07;;
11443;SDS011;5778;47.856;12.154;2022-10-31T01:57:38;7.73;;;5.47;;
11443;SDS011;5778;47.856;12.154;2022-10-31T02:00:09;7.53;;;5.47;;
11443;SDS011;5778;47.856;12.154;2022-10-31T02:02:43;8.03;;;6.50;;
11443;SDS011;5778;47.856;12.154;2022-10-31T02:05:16;6.50;;;5.43;;
11443;SDS011;5778;47.856;12.154;2022-10-31T02:07:48;9.13;;;5.17;;
11443;SDS011;5778;47.856;12.154;2022-10-31T02:10:18;10.03;;;5.60;;
11443;SDS011;5778;47.856;12.154;2022-10-31T02:12:47;8.27;;;6.23;;
11443;SDS011;5778;47.856;12.154;2022-10-31T02:15:16;6.10;;;5.50;;
11443;SDS011;5778;47.856;12.154;2022-10-31T02:17:44;8.37;;;5.73;;
11443;SDS011;5778;47.856;12.154;2022-10-31T02:20:14;7.77;;;5.97;;
11443;SDS011;5778;47.856;12.154;2022-10-31T02:22:55;7.33;;;5.47;;
11443;SDS011;5778;47.856;12.154;2022-10-31T02:25:42;7.13;;;5.00;;
11443;SDS011;5778;47.856;12.154;2022-10-31T02:28:27;6.07;;;5.13;;
11443;SDS011;5778;47.856;12.154;2022-10-31T02:33:57;7.03;;;5.10;;
11443;SDS011;5778;47.856;12.154;2022-10-31T02:36:32;7.60;;;4.70;;
11443;SDS011;5778;47.856;12.154;2022-10-31T02:39:09;8.03;;;4.43;;
11443;SDS011;5778;47.856;12.154;2022-10-31T02:41:44;8.97;;;4.93;;
11443;SDS011;5778;47.856;12.154;2022-10-31T02:44:19;6.90;;;4.83;;
11443;SDS011;5778;47.856;12.154;2022-10-31T02:46:56;8.23;;;5.23;;
11443;SDS011;5778;47.856;12.154;2022-10-31T02:49:27;7.33;;;4.83;;
11443;SDS011;5778;47.856;12.154;2022-10-31T02:51:59;5.07;;;4.57;;
11443;SDS011;5778;47.856;12.154;2022-10-31T02:54:27;9.03;;;5.80;;
11443;SDS011;5778;47.856;12.154;2022-10-31T02:56:55;6.43;;;5.20;;
11443;SDS011;5778;47.856;12.154;2022-10-31T02:59:27;8.17;;;4.70;;
11443;SDS011;5778;47.856;12.154;2022-10-31T03:02:05;7.67;;;4.90;;
11443;SDS011;5778;47.856;12.154;2022-10-31T03:07:48;6.27;;;3.93;;
11443;SDS011;5778;47.856;12.154;2022-10-31T03:10:25;7.40;;;5.67;;
11443;SDS011;5778;47.856;12.154;2022-10-31T03:13:01;8.10;;;5.27;;
11443;SDS011;5778;47.856;12.154;2022-10-31T03:15:36;9.20;;;5.20;;
11443;SDS011;5778;47.856;12.154;2022-10-31T03:18:08;7.37;;;4.97;;
11443;SDS011;5778;47.856;12.154;2022-10-31T03:20:40;9.03;;;4.83;;
11443;SDS011;5778;47.856;12.154;2022-10-31T03:23:12;6.17;;;4.93;;
11443;SDS011;5778;47.856;12.154;2022-10-31T03:25:45;8.83;;;4.60;;
11443;SDS011;5778;47.856;12.154;2022-10-31T03:28:14;6.47;;;4.97;;
11443;SDS011;5778;47.856;12.154;2022-10-31T03:30:45;6.03;;;3.83;;
11443;SDS011;5778;47.856;12.154;2022-10-31T03:33:18;6.63;;;4.10;;
11443;SDS011;5778;47.856;12.154;2022-10-31T03:35:48;7.50;;;4.70;;
11443;SDS011;5778;47.856;12.154;2022-10-31T03:38:20;11.03;;;4.27;;
11443;SDS011;5778;47.856;12.154;2022-10-31T03:40:49;9.93;;;5.20;;
11443;SDS011;5778;47.856;12.154;2022-10-31T03:43:18;6.07;;;4.60;;
11443;SDS011;5778;47.856;12.154;2022-10-31T03:45:50;5.33;;;4.03;;
11443;SDS011;5778;47.856;12.154;2022-10-31T03:48:19;9.00;;;4.90;;
11443;SDS011;5778;47.856;12.154;2022-10-31T03:50:54;6.83;;;4.43;;
11443;SDS011;5778;47.856;12.154;2022-10-31T03:53:30;6.80;;;5.23;;
11443;SDS011;5778;47.856;12.154;2022-10-31T03:56:02;7.43;;;4.80;;
11443;SDS011;5778;47.856;12.154;2022-10-31T03:58:36;9.50;;;4.70;;
11443;SDS011;5778;47.856;12.154;2022-10-31T04:01:11;7.40;;;5.00;;
11443;SDS011;5778;47.856;12.154;2022-10-31T04:03:44;8.43;;;4.80;;
11443;SDS011;5778;47.856;12.154;2022-10-31T04:06:12;6.47;;;4.80;;
11443;SDS011;5778;47.856;12.154;2022-10-31T04:08:44;6.47;;;4.77;;
11443;SDS011;5778;47.856;12.154;2022-10-31T04:11:17;5.20;;;4.40;;
11443;SDS011;5778;47.856;12.154;2022-10-31T04:14:05;7.03;;;5.20;;
11443;SDS011;5778;47.856;12.154;2022-10-31T04:16:36;6.53;;;4.03;;
11443;SDS011;5778;47.856;12.154;2022-10-31T04:19:06;4.80;;;3.93;;
11443;SDS011;5778;47.856;12.154;2022-10-31T04:21:33;8.57;;;4.87;;
11443;SDS011;5778;47.856;12.154;2022-10-31T04:24:00;9.30;;;5.20;;
11443;SDS011;5778;47.856;12.154;2022-10-31T04:26:29;6.47;;;4.23;;
11443;SDS011;5778;47.856;12.154;2022-10-31T04:28:56;9.07;;;4.87;;
11443;SDS011;5778;47.856;12.154;2022-10-31T04:31:26;8.50;;;5.20;;
11443;SDS011;5778;47.856;12.154;2022-10-31T04:33:53;6.63;;;5.23;;
11443;SDS011;5778;47.856;12.154;2022-10-31T04:36:24;7.37;;;4.60;;
11443;SDS011;5778;47.856;12.154;2022-10-31T04:38:52;8.13;;;5.03;;
11443;SDS011;5778;47.856;12.154;2022-10-31T04:41:37;8.83;;;5.20;;
11443;SDS011;5778;47.856;12.154;2022-10-31T04:44:12;6.30;;;5.43;;
11443;SDS011;5778;47.856;12.154;2022-10-31T04:46:39;4.87;;;4.37;;
11443;SDS011;5778;47.856;12.154;2022-10-31T04:49:07;6.03;;;4.43;;
11443;SDS011;5778;47.856;12.154;2022-10-31T04:51:38;6.40;;;4.73;;
11443;SDS011;5778;47.856;12.154;2022-10-31T04:54:07;7.83;;;4.50;;
11443;SDS011;5778;47.856;12.154;2022-10-31T04:56:54;7.07;;;4.47;;
11443;SDS011;5778;47.856;12.154;2022-10-31T04:59:22;5.60;;;4.30;;
11443;SDS011;5778;47.856;12.154;2022-10-31T05:01:53;7.50;;;5.17;;
11443;SDS011;5778;47.856;12.154;2022-10-31T05:04:37;7.80;;;5.07;;
11443;SDS011;5778;47.856;12.154;2022-10-31T05:07:05;7.53;;;4.50;;
11443;SDS011;5778;47.856;12.154;2022-10-31T05:09:33;5.23;;;4.13;;
11443;SDS011;5778;47.856;12.154;2022-10-31T05:15:05;9.70;;;5.53;;
11443;SDS011;5778;47.856;12.154;2022-10-31T05:18:05;7.40;;;4.33;;
11443;SDS011;5778;47.856;12.154;2022-10-31T05:21:02;7.97;;;4.40;;
11443;SDS011;5778;47.856;12.154;2022-10-31T05:23:39;6.17;;;4.40;;
11443;SDS011;5778;47.856;12.154;2022-10-31T05:26:20;5.87;;;4.47;;
11443;SDS011;5778;47.856;12.154;2022-10-31T05:28:47;6.10;;;4.73;;
11443;SDS011;5778;47.856;12.154;2022-10-31T05:35:03;7.27;;;4.90;;
11443;SDS011;5778;47.856;12.154;2022-10-31T05:37:53;10.17;;;5.13;;
11443;SDS011;5778;47.856;12.154;2022-10-31T05:40:22;8.77;;;5.43;;
11443;SDS011;5778;47.856;12.154;2022-10-31T05:43:04;10.57;;;5.90;;
11443;SDS011;5778;47.856;12.154;2022-10-31T05:45:31;11.27;;;5.73;;
11443;SDS011;5778;47.856;12.154;2022-10-31T05:48:02;7.60;;;5.47;;
11443;SDS011;5778;47.856;12.154;2022-10-31T05:51:09;7.70;;;5.10;;
11443;SDS011;5778;47.856;12.154;2022-10-31T05:53:36;9.13;;;4.73;;
11443;SDS011;5778;47.856;12.154;2022-10-31T05:59:30;6.33;;;4.47;;
11443;SDS011;5778;47.856;12.154;2022-10-31T06:02:09;7.80;;;5.20;;
11443;SDS011;5778;47.856;12.154;2022-10-31T06:05:06;5.27;;;4.40;;
11443;SDS011;5778;47.856;12.154;2022-10-31T06:07:34;5.87;;;4.53;;
11443;SDS011;5778;47.856;12.154;2022-10-31T06:10:03;6.03;;;4.73;;
11443;SDS011;5778;47.856;12.154;2022-10-31T06:12:42;8.63;;;5.27;;
11443;SDS011;5778;47.856;12.154;2022-10-31T06:15:16;9.37;;;4.93;;
11443;SDS011;5778;47.856;12.154;2022-10-31T06:17:44;8.67;;;5.50;;
11443;SDS011;5778;47.856;12.154;2022-10-31T06:20:33;6.70;;;4.40;;
11443;SDS011;5778;47.856;12.154;2022-10-31T06:26:24;6.60;;;4.20;;
11443;SDS011;5778;47.856;12.154;2022-10-31T06:28:51;5.80;;;4.77;;
11443;SDS011;5778;47.856;12.154;2022-10-31T06:34:31;9.63;;;5.67;;
11443;SDS011;5778;47.856;12.154;2022-10-31T06:36:57;6.63;;;5.20;;
11443;SDS011;5778;47.856;12.154;2022-10-31T06:39:27;8.10;;;5.87;;
11443;SDS011;5778;47.856;12.154;2022-10-31T06:45:41;12.83;;;8.37;;
11443;SDS011;5778;47.856;12.154;2022-10-31T06:48:13;12.03;;;7.87;;
11443;SDS011;5778;47.856;12.154;2022-10-31T06:54:06;14.97;;;8.03;;
11443;SDS011;5778;47.856;12.154;2022-10-31T06:56:33;11.73;;;8.13;;
11443;SDS011;5778;47.856;12.154;2022-10-31T06:59:01;10.90;;;7.37;;
11443;SDS011;5778;47.856;12.154;2022-10-31T07:04:44;10.00;;;7.07;;
11443;SDS011;5778;47.856;12.154;2022-10-31T07:07:13;12.03;;;7.10;;
11443;SDS011;5778;47.856;12.154;2022-10-31T07:09:40;8.40;;;6.83;;
11443;SDS011;5778;47.856;12.154;2022-10-31T07:15:19;14.27;;;7.00;;
11443;SDS011;5778;47.856;12.154;2022-10-31T07:17:46;11.70;;;6.93;;
11443;SDS011;5778;47.856;12.154;2022-10-31T07:20:15;13.40;;;7.17;;
11443;SDS011;5778;47.856;12.154;2022-10-31T07:22:46;9.13;;;6.97;;
11443;SDS011;5778;47.856;12.154;2022-10-31T07:28:23;9.77;;;6.87;;
11443;SDS011;5778;47.856;12.154;2022-10-31T07:34:01;14.47;;;8.50;;
11443;SDS011;5778;47.856;12.154;2022-10-31T07:36:48;11.80;;;8.23;;
11443;SDS011;5778;47.856;12.154;2022-10-31T07:39:17;12.27;;;7.93;;
11443;SDS011;5778;47.856;12.154;2022-10-31T07:41:46;14.40;;;7.87;;
11443;SDS011;5778;47.856;12.154;2022-10-31T07:44:17;11.23;;;6.63;;
11443;SDS011;5778;47.856;12.154;2022-10-31T07:47:03;10.10;;;6.27;;
11443;SDS011;5778;47.856;12.154;2022-10-31T07:49:59;12.50;;;6.53;;
11443;SDS011;5778;47.856;12.154;2022-10-31T07:52:57;11.33;;;6.93;;
11443;SDS011;5778;47.856;12.154;2022-10-31T07:58:45;13.50;;;8.30;;
11443;SDS011;5778;47.856;12.154;2022-10-31T08:01:13;17.10;;;9.43;;
11443;SDS011;5778;47.856;12.154;2022-10-31T08:03:48;15.93;;;10.17;;
11443;SDS011;5778;47.856;12.154;2022-10-31T08:06:34;14.57;;;7.80;;
11443;SDS011;5778;47.856;12.154;2022-10-31T08:09:20;10.47;;;6.13;;
11443;SDS011;5778;47.856;12.154;2022-10-31T08:12:00;11.27;;;6.77;;
11443;SDS011;5778;47.856;12.154;2022-10-31T08:14:29;7.67;;;6.00;;
11443;SDS011;5778;47.856;12.154;2022-10-31T08:16:56;8.23;;;5.90;;
11443;SDS011;5778;47.856;12.154;2022-10-31T08:19:30;8.03;;;5.20;;
11443;SDS011;5778;47.856;12.154;2022-10-31T08:24:58;11.43;;;4.93;;
11443;SDS011;5778;47.856;12.154;2022-10-31T08:27:26;6.60;;;4.43;;
11443;SDS011;5778;47.856;12.154;2022-10-31T08:29:55;9.13;;;4.43;;
11443;SDS011;5778;47.856;12.154;2022-10-31T08:32:23;9.20;;;4.93;;
11443;SDS011;5778;47.856;12.154;2022-10-31T08:34:56;6.83;;;4.80;;
11443;SDS011;5778;47.856;12.154;2022-10-31T08:37:42;12.40;;;4.70;;
11443;SDS011;5778;47.856;12.154;2022-10-31T08:40:12;8.10;;;4.80;;
11443;SDS011;5778;47.856;12.154;2022-10-31T08:42:39;6.90;;;4.97;;
11443;SDS011;5778;47.856;12.154;2022-10-31T08:45:06;11.77;;;4.80;;
11443;SDS011;5778;47.856;12.154;2022-10-31T08:47:35;7.77;;;4.50;;
11443;SDS011;5778;47.856;12.154;2022-10-31T08:50:03;8.27;;;4.80;;
11443;SDS011;5778;47.856;12.154;2022-10-31T08:59:18;7.67;;;4.40;;
11443;SDS011;5778;47.856;12.154;2022-10-31T09:02:19;7.57;;;4.57;;
11443;SDS011;5778;47.856;12.154;2022-10-31T09:04:48;7.60;;;4.23;;
11443;SDS011;5778;47.856;12.154;2022-10-31T09:07:16;6.43;;;4.10;;
11443;SDS011;5778;47.856;12.154;2022-10-31T09:09:43;9.50;;;4.50;;
11443;SDS011;5778;47.856;12.154;2022-10-31T09:12:11;11.10;;;4.30;;
11443;SDS011;5778;47.856;12.154;2022-10-31T09:14:58;9.30;;;4.10;;
11443;SDS011;5778;47.856;12.154;2022-10-31T09:17:52;7.53;;;4.20;;
11443;SDS011;5778;47.856;12.154;2022-10-31T09:20:40;6.93;;;3.90;;
11443;SDS011;5778;47.856;12.154;2022-10-31T09:23:09;7.80;;;4.23;;
11443;SDS011;5778;47.856;12.154;2022-10-31T09:25:38;7.93;;;3.97;;
11443;SDS011;5778;47.856;12.154;2022-10-31T09:28:24;8.27;;;3.93;;
11443;SDS011;5778;47.856;12.154;2022-10-31T09:30:54;6.00;;;3.70;;
11443;SDS011;5778;47.856;12.154;2022-10-31T09:33:54;7.87;;;3.70;;
11443;SDS011;5778;47.856;12.154;2022-10-31T09:36:36;6.00;;;3.73;;
11443;SDS011;5778;47.856;12.154;2022-10-31T09:39:13;8.40;;;3.77;;
11443;SDS011;5778;47.856;12.154;2022-10-31T09:41:51;9.47;;;3.47;;
11443;SDS011;5778;47.856;12.154;2022-10-31T09:44:34;7.13;;;3.63;;
11443;SDS011;5778;47.856;12.154;2022-10-31T09:47:24;5.10;;;3.57;;
11443;SDS011;5778;47.856;12.154;2022-10-31T09:50:22;9.57;;;3.50;;
11443;SDS011;5778;47.856;12.154;2022-10-31T09:52:56;10.60;;;3.47;;
11443;SDS011;5778;47.856;12.154;2022-10-31T09:55:28;9.00;;;3.80;;
11443;SDS011;5778;47.856;12.154;2022-10-31T09:58:01;7.13;;;3.30;;
11443;SDS011;5778;47.856;12.154;2022-10-31T10:00:29;9.30;;;3.67;;
11443;SDS011;5778;47.856;12.154;2022-10-31T10:03:06;7.57;;;3.77;;
11443;SDS011;5778;47.856;12.154;2022-10-31T10:05:43;8.03;;;3.60;;
11443;SDS011;5778;47.856;12.154;2022-10-31T10:08:29;7.10;;;3.30;;
11443;SDS011;5778;47.856;12.154;2022-10-31T10:11:32;8.07;;;3.63;;
11443;SDS011;5778;47.856;12.154;2022-10-31T10:17:11;9.23;;;3.77;;
11443;SDS011;5778;47.856;12.154;2022-10-31T10:22:51;8.73;;;3.27;;
11443;SDS011;5778;47.856;12.154;2022-10-31T10:25:24;7.60;;;2.80;;
11443;SDS011;5778;47.856;12.154;2022-10-31T10:27:58;7.07;;;3.27;;
11443;SDS011;5778;47.856;12.154;2022-10-31T10:30:35;7.17;;;2.90;;
11443;SDS011;5778;47.856;12.154;2022-10-31T10:33:08;6.03;;;3.10;;
11443;SDS011;5778;47.856;12.154;2022-10-31T10:35:41;7.70;;;2.83;;
11443;SDS011;5778;47.856;12.154;2022-10-31T10:38:13;5.93;;;2.97;;
11443;SDS011;5778;47.856;12.154;2022-10-31T10:40:43;5.70;;;3.00;;
11443;SDS011;5778;47.856;12.154;2022-10-31T10:43:19;8.37;;;3.20;;
11443;SDS011;5778;47.856;12.154;2022-10-31T10:45:50;7.73;;;3.80;;
11443;SDS011;5778;47.856;12.154;2022-10-31T10:48:41;5.60;;;3.63;;
11443;SDS011;5778;47.856;12.154;2022-10-31T10:51:15;8.73;;;3.20;;
11443;SDS011;5778;47.856;12.154;2022-10-31T10:53:50;8.60;;;3.30;;
11443;SDS011;5778;47.856;12.154;2022-10-31T10:56:31;10.60;;;3.63;;
11443;SDS011;5778;47.856;12.154;2022-10-31T10:59:09;8.43;;;4.10;;
11443;SDS011;5778;47.856;12.154;2022-10-31T11:01:39;6.03;;;3.73;;
11443;SDS011;5778;47.856;12.154;2022-10-31T11:04:21;4.93;;;3.30;;
11443;SDS011;5778;47.856;12.154;2022-10-31T11:07:00;6.93;;;3.50;;
11443;SDS011;5778;47.856;12.154;2022-10-31T11:09:30;6.77;;;3.57;;
11443;SDS011;5778;47.856;12.154;2022-10-31T11:11:57;12.60;;;3.63;;
11443;SDS011;5778;47.856;12.154;2022-10-31T11:14:25;8.37;;;3.53;;
11443;SDS011;5778;47.856;12.154;2022-10-31T11:16:54;7.70;;;4.00;;
11443;SDS011;5778;47.856;12.154;2022-10-31T11:19:32;6.17;;;3.43;;
11443;SDS011;5778;47.856;12.154;2022-10-31T11:22:06;6.47;;;3.60;;
11443;SDS011;5778;47.856;12.154;2022-10-31T11:24:39;5.87;;;3.60;;
11443;SDS011;5778;47.856;12.154;2022-10-31T11:27:14;10.83;;;3.63;;
11443;SDS011;5778;47.856;12.154;2022-10-31T11:29:43;10.53;;;4.40;;
11443;SDS011;5778;47.856;12.154;2022-10-31T11:32:18;9.23;;;3.80;;
11443;SDS011;5778;47.856;12.154;2022-10-31T11:34:47;9.27;;;4.30;;
11443;SDS011;5778;47.856;12.154;2022-10-31T11:37:20;8.67;;;3.80;;
11443;SDS011;5778;47.856;12.154;2022-10-31T11:39:50;10.50;;;4.10;;
11443;SDS011;5778;47.856;12.154;2022-10-31T11:42:20;7.77;;;3.33;;
11443;SDS011;5778;47.856;12.154;2022-10-31T11:44:49;8.70;;;3.77;;
11443;SDS011;5778;47.856;12.154;2022-10-31T11:47:20;8.37;;;3.73;;
11443;SDS011;5778;47.856;12.154;2022-10-31T11:49:51;7.03;;;3.47;;
11443;SDS011;5778;47.856;12.154;2022-10-31T11:52:21;8.67;;;4.10;;
11443;SDS011;5778;47.856;12.154;2022-10-31T11:54:51;9.43;;;3.60;;
11443;SDS011;5778;47.856;12.154;2022-10-31T11:57:25;9.17;;;4.27;;
11443;SDS011;5778;47.856;12.154;2022-10-31T11:59:54;5.20;;;3.87;;
11443;SDS011;5778;47.856;12.154;2022-10-31T12:02:23;7.53;;;3.70;;
11443;SDS011;5778;47.856;12.154;2022-10-31T12:04:51;7.87;;;4.03;;
11443;SDS011;5778;47.856;12.154;2022-10-31T12:07:25;7.67;;;3.90;;
11443;SDS011;5778;47.856;12.154;2022-10-31T12:09:52;8.10;;;4.23;;
11443;SDS011;5778;47.856;12.154;2022-10-31T12:12:34;8.53;;;3.93;;
11443;SDS011;5778;47.856;12.154;2022-10-31T12:18:17;10.50;;;4.00;;
11443;SDS011;5778;47.856;12.154;2022-10-31T12:20:57;9.27;;;4.10;;
11443;SDS011;5778;47.856;12.154;2022-10-31T12:23:38;10.00;;;3.93;;
11443;SDS011;5778;47.856;12.154;2022-10-31T12:26:17;7.43;;;3.90;;
11443;SDS011;5778;47.856;12.154;2022-10-31T12:28:51;10.57;;;4.30;;
11443;SDS011;5778;47.856;12.154;2022-10-31T12:31:39;12.07;;;4.03;;
11443;SDS011;5778;47.856;12.154;2022-10-31T12:37:30;9.90;;;4.70;;
11443;SDS011;5778;47.856;12.154;2022-10-31T12:40:16;9.53;;;4.10;;
11443;SDS011;5778;47.856;12.154;2022-10-31T12:42:59;7.97;;;4.10;;
11443;SDS011;5778;47.856;12.154;2022-10-31T12:45:39;10.77;;;4.70;;
11443;SDS011;5778;47.856;12.154;2022-10-31T12:48:20;7.63;;;4.37;;
11443;SDS011;5778;47.856;12.154;2022-10-31T12:51:02;8.17;;;4.13;;
11443;SDS011;5778;47.856;12.154;2022-10-31T12:53:41;10.60;;;4.13;;
11443;SDS011;5778;47.856;12.154;2022-10-31T12:56:21;8.47;;;4.57;;
11443;SDS011;5778;47.856;12.154;2022-10-31T12:58:59;8.30;;;4.67;;
11443;SDS011;5778;47.856;12.154;2022-10-31T13:01:32;7.93;;;4.50;;
11443;SDS011;5778;47.856;12.154;2022-10-31T13:04:05;9.37;;;4.83;;
11443;SDS011;5778;47.856;12.154;2022-10-31T13:06:38;8.77;;;4.67;;
11443;SDS011;5778;47.856;12.154;2022-10-31T13:09:10;9.50;;;4.57;;
11443;SDS011;5778;47.856;12.154;2022-10-31T13:11:42;9.50;;;4.60;;
11443;SDS011;5778;47.856;12.154;2022-10-31T13:14:15;10.23;;;4.83;;
11443;SDS011;5778;47.856;12.154;2022-10-31T13:16:49;8.33;;;4.10;;
11443;SDS011;5778;47.856;12.154;2022-10-31T13:19:19;9.63;;;4.77;;
11443;SDS011;5778;47.856;12.154;2022-10-31T13:21:53;11.50;;;4.70;;
11443;SDS011;5778;47.856;12.154;2022-10-31T13:24:27;9.10;;;4.93;;
11443;SDS011;5778;47.856;12.154;2022-10-31T13:27:02;10.23;;;5.23;;
11443;SDS011;5778;47.856;12.154;2022-10-31T13:29:36;10.13;;;4.60;;
11443;SDS011;5778;47.856;12.154;2022-10-31T13:32:09;11.07;;;5.53;;
11443;SDS011;5778;47.856;12.154;2022-10-31T13:34:37;14.70;;;5.57;;
11443;SDS011;5778;47.856;12.154;2022-10-31T13:37:10;8.63;;;5.13;;
11443;SDS011;5778;47.856;12.154;2022-10-31T13:39:46;10.13;;;4.40;;
11443;SDS011;5778;47.856;12.154;2022-10-31T13:42:23;8.80;;;5.20;;
11443;SDS011;5778;47.856;12.154;2022-10-31T13:45:08;10.87;;;4.80;;
11443;SDS011;5778;47.856;12.154;2022-10-31T13:47:38;10.30;;;4.67;;
11443;SDS011;5778;47.856;12.154;2022-10-31T13:50:19;5.57;;;4.50;;
11443;SDS011;5778;47.856;12.154;2022-10-31T13:52:47;7.20;;;4.60;;
11443;SDS011;5778;47.856;12.154;2022-10-31T13:58:05;6.90;;;4.27;;
11443;SDS011;5778;47.856;12.154;2022-10-31T14:00:57;9.70;;;5.50;;
11443;SDS011;5778;47.856;12.154;2022-10-31T14:03:25;7.27;;;4.43;;
11443;SDS011;5778;47.856;12.154;2022-10-31T14:05:53;7.30;;;4.80;;
11443;SDS011;5778;47.856;12.154;2022-10-31T14:08:23;9.73;;;4.93;;
11443;SDS011;5778;47.856;12.154;2022-10-31T14:10:50;9.43;;;5.40;;
11443;SDS011;5778;47.856;12.154;2022-10-31T14:13:22;9.33;;;4.63;;
11443;SDS011;5778;47.856;12.154;2022-10-31T14:15:55;10.87;;;4.97;;
11443;SDS011;5778;47.856;12.154;2022-10-31T14:18:24;9.40;;;4.83;;
11443;SDS011;5778;47.856;12.154;2022-10-31T14:20:56;8.47;;;5.03;;
11443;SDS011;5778;47.856;12.154;2022-10-31T14:23:36;10.30;;;5.07;;
11443;SDS011;5778;47.856;12.154;2022-10-31T14:26:19;8.10;;;4.27;;
11443;SDS011;5778;47.856;12.154;2022-10-31T14:28:58;10.70;;;4.60;;
11443;SDS011;5778;47.856;12.154;2022-10-31T14:31:27;8.73;;;4.13;;
11443;SDS011;5778;47.856;12.154;2022-10-31T14:34:00;7.40;;;4.17;;
11443;SDS011;5778;47.856;12.154;2022-10-31T14:36:30;9.27;;;4.63;;
11443;SDS011;5778;47.856;12.154;2022-10-31T14:39:09;7.13;;;4.80;;
11443;SDS011;5778;47.856;12.154;2022-10-31T14:41:46;13.03;;;5.27;;
11443;SDS011;5778;47.856;12.154;2022-10-31T14:44:29;13.30;;;5.40;;
11443;SDS011;5778;47.856;12.154;2022-10-31T14:47:12;9.47;;;4.80;;
11443;SDS011;5778;47.856;12.154;2022-10-31T14:49:55;8.63;;;4.50;;
11443;SDS011;5778;47.856;12.154;2022-10-31T14:52:35;9.17;;;4.53;;
11443;SDS011;5778;47.856;12.154;2022-10-31T14:55:04;11.50;;;4.47;;
11443;SDS011;5778;47.856;12.154;2022-10-31T14:57:34;11.90;;;4.63;;
11443;SDS011;5778;47.856;12.154;2022-10-31T15:00:06;8.13;;;4.87;;
11443;SDS011;5778;47.856;12.154;2022-10-31T15:02:37;9.67;;;4.97;;
11443;SDS011;5778;47.856;12.154;2022-10-31T15:05:10;13.03;;;4.50;;
11443;SDS011;5778;47.856;12.154;2022-10-31T15:07:47;11.77;;;4.60;;
11443;SDS011;5778;47.856;12.154;2022-10-31T15:10:19;10.07;;;4.47;;
11443;SDS011;5778;47.856;12.154;2022-10-31T15:12:47;13.20;;;4.90;;
11443;SDS011;5778;47.856;12.154;2022-10-31T15:15:17;10.47;;;4.70;;
11443;SDS011;5778;47.856;12.154;2022-10-31T15:17:48;10.03;;;4.57;;
11443;SDS011;5778;47.856;12.154;2022-10-31T15:20:17;7.83;;;4.60;;
11443;SDS011;5778;47.856;12.154;2022-10-31T15:22:47;10.37;;;4.27;;
11443;SDS011;5778;47.856;12.154;2022-10-31T15:25:16;8.23;;;4.50;;
11443;SDS011;5778;47.856;12.154;2022-10-31T15:27:45;10.90;;;4.77;;
11443;SDS011;5778;47.856;12.154;2022-10-31T15:30:17;11.50;;;5.37;;
11443;SDS011;5778;47.856;12.154;2022-10-31T15:32:45;9.10;;;4.53;;
11443;SDS011;5778;47.856;12.154;2022-10-31T15:35:19;8.43;;;4.90;;
11443;SDS011;5778;47.856;12.154;2022-10-31T15:37:49;9.77;;;4.80;;
11443;SDS011;5778;47.856;12.154;2022-10-31T15:40:16;5.63;;;4.03;;
11443;SDS011;5778;47.856;12.154;2022-10-31T15:42:46;10.43;;;4.47;;
11443;SDS011;5778;47.856;12.154;2022-10-31T15:45:19;10.73;;;4.70;;
11443;SDS011;5778;47.856;12.154;2022-10-31T15:47:50;12.27;;;4.63;;
11443;SDS011;5778;47.856;12.154;2022-10-31T15:50:22;12.20;;;5.03;;
11443;SDS011;5778;47.856;12.154;2022-10-31T15:52:53;8.03;;;4.17;;
11443;SDS011;5778;47.856;12.154;2022-10-31T15:55:20;16.03;;;4.90;;
11443;SDS011;5778;47.856;12.154;2022-10-31T15:57:49;7.97;;;4.87;;
11443;SDS011;5778;47.856;12.154;2022-10-31T16:00:25;6.80;;;5.20;;
11443;SDS011;5778;47.856;12.154;2022-10-31T16:03:04;8.57;;;5.10;;
11443;SDS011;5778;47.856;12.154;2022-10-31T16:05:34;10.80;;;4.97;;
11443;SDS011;5778;47.856;12.154;2022-10-31T16:08:03;11.20;;;5.10;;
11443;SDS011;5778;47.856;12.154;2022-10-31T16:10:33;10.63;;;4.53;;
11443;SDS011;5778;47.856;12.154;2022-10-31T16:13:01;10.17;;;4.90;;
11443;SDS011;5778;47.856;12.154;2022-10-31T16:15:30;5.47;;;4.20;;
11443;SDS011;5778;47.856;12.154;2022-10-31T16:17:58;9.90;;;5.30;;
11443;SDS011;5778;47.856;12.154;2022-10-31T16:20:26;9.60;;;4.57;;
11443;SDS011;5778;47.856;12.154;2022-10-31T16:22:57;14.27;;;5.43;;
11443;SDS011;5778;47.856;12.154;2022-10-31T16:25:25;11.10;;;5.67;;
11443;SDS011;5778;47.856;12.154;2022-10-31T16:27:54;7.47;;;4.70;;
11443;SDS011;5778;47.856;12.154;2022-10-31T16:30:35;7.43;;;4.80;;
11443;SDS011;5778;47.856;12.154;2022-10-31T16:33:04;7.80;;;4.70;;